sensor_id;sensor_type;location;lat;lon;timestamp;temperature;humidity
79571;DHT22;69034;49.444;7.758;2023-05-10T00:00:18;17.70;61.10
79571;DHT22;69034;49.444;7.758;2023-05-10T00:04:19;17.60;61.20
79571;DHT22;69034;49.444;7.758;2023-05-10T00:08:19;17.50;61.20
79571;DHT22;69034;49.444;7.758;2023-05-10T00:12:20;17.50;61.40
79571;DHT22;69034;49.444;7.758;2023-05-10T00:16:21;17.40;61.50
79571;DHT22;69034;49.444;7.758;2023-05-10T00:20:21;17.30;61.70
79571;DHT22;69034;49.444;7.758;2023-05-10T00:24:22;17.30;61.70
79571;DHT22;69034;49.444;7.758;2023-05-10T00:28:23;17.30;61.80
79571;DHT22;69034;49.444;7.758;2023-05-10T00:32:23;17.20;61.90
79571;DHT22;69034;49.444;7.758;2023-05-10T00:36:24;17.20;62.00
79571;DHT22;69034;49.444;7.758;2023-05-10T00:40:25;17.10;62.00
79571;DHT22;69034;49.444;7.758;2023-05-10T00:44:25;17.10;62.10
79571;DHT22;69034;49.444;7.758;2023-05-10T00:48:26;17.10;62.20
79571;DHT22;69034;49.444;7.758;2023-05-10T00:52:28;17.10;62.20
79571;DHT22;69034;49.444;7.758;2023-05-10T00:56:28;17.10;62.30
79571;DHT22;69034;49.444;7.758;2023-05-10T01:00:30;17.00;62.40
79571;DHT22;69034;49.444;7.758;2023-05-10T01:04:31;17.00;62.30
79571;DHT22;69034;49.444;7.758;2023-05-10T01:08:32;17.00;62.40
79571;DHT22;69034;49.444;7.758;2023-05-10T01:12:35;17.00;62.40
79571;DHT22;69034;49.444;7.758;2023-05-10T01:16:38;17.00;62.40
79571;DHT22;69034;49.444;7.758;2023-05-10T01:20:43;17.00;62.50
79571;DHT22;69034;49.444;7.758;2023-05-10T01:29:30;17.30;62.20
79571;DHT22;69034;49.444;7.758;2023-05-10T01:38:07;17.60;61.70
79571;DHT22;69034;49.444;7.758;2023-05-10T01:46:19;17.70;61.50
79571;DHT22;69034;49.444;7.758;2023-05-10T01:50:25;17.70;61.30
79571;DHT22;69034;49.444;7.758;2023-05-10T01:54:29;17.80;61.40
79571;DHT22;69034;49.444;7.758;2023-05-10T01:58:32;17.70;61.40
79571;DHT22;69034;49.444;7.758;2023-05-10T02:02:40;17.60;61.50
79571;DHT22;69034;49.444;7.758;2023-05-10T02:06:43;17.60;61.60
79571;DHT22;69034;49.444;7.758;2023-05-10T02:10:46;17.50;61.60
79571;DHT22;69034;49.444;7.758;2023-05-10T02:14:48;17.30;61.80
79571;DHT22;69034;49.444;7.758;2023-05-10T02:18:50;17.10;62.00
79571;DHT22;69034;49.444;7.758;2023-05-10T02:22:53;17.10;62.10
79571;DHT22;69034;49.444;7.758;2023-05-10T02:26:55;17.00;62.20
79571;DHT22;69034;49.444;7.758;2023-05-10T02:30:57;16.90;62.30
79571;DHT22;69034;49.444;7.758;2023-05-10T02:34:58;16.90;62.40
79571;DHT22;69034;49.444;7.758;2023-05-10T02:39:01;16.80;62.40
79571;DHT22;69034;49.444;7.758;2023-05-10T02:43:02;16.80;62.50
79571;DHT22;69034;49.444;7.758;2023-05-10T02:47:04;16.80;62.60
79571;DHT22;69034;49.444;7.758;2023-05-10T02:51:06;16.80;62.60
79571;DHT22;69034;49.444;7.758;2023-05-10T02:55:09;16.70;62.60
79571;DHT22;69034;49.444;7.758;2023-05-10T02:59:11;16.70;62.60
79571;DHT22;69034;49.444;7.758;2023-05-10T03:03:12;16.70;62.60
79571;DHT22;69034;49.444;7.758;2023-05-10T03:07:13;16.70;62.70
79571;DHT22;69034;49.444;7.758;2023-05-10T03:16:08;16.60;62.90
79571;DHT22;69034;49.444;7.758;2023-05-10T03:20:11;16.60;63.00
79571;DHT22;69034;49.444;7.758;2023-05-10T03:24:13;16.50;63.00
79571;DHT22;69034;49.444;7.758;2023-05-10T03:28:16;16.50;63.00
79571;DHT22;69034;49.444;7.758;2023-05-10T03:32:18;16.50;63.10
79571;DHT22;69034;49.444;7.758;2023-05-10T03:36:19;16.50;63.00
79571;DHT22;69034;49.444;7.758;2023-05-10T03:40:20;16.40;63.10
79571;DHT22;69034;49.444;7.758;2023-05-10T03:44:20;16.40;63.10
79571;DHT22;69034;49.444;7.758;2023-05-10T03:48:21;16.50;63.30
79571;DHT22;69034;49.444;7.758;2023-05-10T03:52:21;16.60;63.30
79571;DHT22;69034;49.444;7.758;2023-05-10T03:56:22;16.80;63.00
79571;DHT22;69034;49.444;7.758;2023-05-10T04:00:23;16.90;62.70
79571;DHT22;69034;49.444;7.758;2023-05-10T04:04:23;17.00;62.60
79571;DHT22;69034;49.444;7.758;2023-05-10T04:08:24;17.10;62.40
79571;DHT22;69034;49.444;7.758;2023-05-10T04:12:25;17.20;62.40
79571;DHT22;69034;49.444;7.758;2023-05-10T04:16:25;17.20;62.40
79571;DHT22;69034;49.444;7.758;2023-05-10T04:20:26;17.20;62.30
79571;DHT22;69034;49.444;7.758;2023-05-10T04:24:26;17.30;62.20
79571;DHT22;69034;49.444;7.758;2023-05-10T04:28:27;17.30;62.00
79571;DHT22;69034;49.444;7.758;2023-05-10T04:32:28;17.40;61.80
79571;DHT22;69034;49.444;7.758;2023-05-10T04:36:29;17.40;61.70
79571;DHT22;69034;49.444;7.758;2023-05-10T04:40:30;17.30;61.80
79571;DHT22;69034;49.444;7.758;2023-05-10T04:44:33;17.30;61.80
79571;DHT22;69034;49.444;7.758;2023-05-10T04:48:34;17.30;61.90
79571;DHT22;69034;49.444;7.758;2023-05-10T04:52:35;17.30;61.90
79571;DHT22;69034;49.444;7.758;2023-05-10T04:56:36;17.40;61.70
79571;DHT22;69034;49.444;7.758;2023-05-10T05:00:36;17.40;61.80
79571;DHT22;69034;49.444;7.758;2023-05-10T05:04:37;17.40;61.80
79571;DHT22;69034;49.444;7.758;2023-05-10T05:08:37;17.40;61.90
79571;DHT22;69034;49.444;7.758;2023-05-10T05:12:38;17.40;61.90
79571;DHT22;69034;49.444;7.758;2023-05-10T05:16:38;17.30;62.00
79571;DHT22;69034;49.444;7.758;2023-05-10T05:20:39;17.30;62.10
79571;DHT22;69034;49.444;7.758;2023-05-10T05:24:40;17.30;62.20
79571;DHT22;69034;49.444;7.758;2023-05-10T05:28:40;17.30;62.20
79571;DHT22;69034;49.444;7.758;2023-05-10T05:32:41;17.30;62.30
79571;DHT22;69034;49.444;7.758;2023-05-10T05:36:42;17.40;62.10
79571;DHT22;69034;49.444;7.758;2023-05-10T05:40:42;17.60;61.70
79571;DHT22;69034;49.444;7.758;2023-05-10T05:44:43;17.90;61.50
79571;DHT22;69034;49.444;7.758;2023-05-10T05:48:43;18.10;61.30
79571;DHT22;69034;49.444;7.758;2023-05-10T05:52:44;18.20;61.20
79571;DHT22;69034;49.444;7.758;2023-05-10T05:56:45;18.20;61.20
79571;DHT22;69034;49.444;7.758;2023-05-10T06:00:45;18.30;61.10
79571;DHT22;69034;49.444;7.758;2023-05-10T06:04:46;18.40;61.00
79571;DHT22;69034;49.444;7.758;2023-05-10T06:08:46;18.30;61.00
79571;DHT22;69034;49.444;7.758;2023-05-10T06:12:47;18.30;61.10
79571;DHT22;69034;49.444;7.758;2023-05-10T06:16:48;18.50;60.70
79571;DHT22;69034;49.444;7.758;2023-05-10T06:20:49;19.00;59.90
79571;DHT22;69034;49.444;7.758;2023-05-10T06:24:50;19.60;59.00
79571;DHT22;69034;49.444;7.758;2023-05-10T06:28:51;19.90;58.80
79571;DHT22;69034;49.444;7.758;2023-05-10T06:32:51;20.30;58.30
79571;DHT22;69034;49.444;7.758;2023-05-10T06:36:52;20.60;58.00
79571;DHT22;69034;49.444;7.758;2023-05-10T06:40:53;21.30;57.00
79571;DHT22;69034;49.444;7.758;2023-05-10T06:44:53;21.70;56.50
79571;DHT22;69034;49.444;7.758;2023-05-10T06:48:54;21.60;56.60
79571;DHT22;69034;49.444;7.758;2023-05-10T06:52:54;21.80;56.00
79571;DHT22;69034;49.444;7.758;2023-05-10T06:56:56;22.10;55.10
79571;DHT22;69034;49.444;7.758;2023-05-10T07:01:02;22.30;54.80
79571;DHT22;69034;49.444;7.758;2023-05-10T07:05:03;22.40;54.60
79571;DHT22;69034;49.444;7.758;2023-05-10T07:09:04;22.30;54.70
79571;DHT22;69034;49.444;7.758;2023-05-10T07:13:04;21.70;55.50
79571;DHT22;69034;49.444;7.758;2023-05-10T07:17:05;21.20;55.90
79571;DHT22;69034;49.444;7.758;2023-05-10T07:21:05;20.90;56.20
79571;DHT22;69034;49.444;7.758;2023-05-10T07:25:06;20.80;56.00
79571;DHT22;69034;49.444;7.758;2023-05-10T07:29:07;20.80;56.00
79571;DHT22;69034;49.444;7.758;2023-05-10T07:33:09;20.80;56.00
79571;DHT22;69034;49.444;7.758;2023-05-10T07:37:10;20.90;55.80
79571;DHT22;69034;49.444;7.758;2023-05-10T07:41:12;21.00;55.80
79571;DHT22;69034;49.444;7.758;2023-05-10T07:45:12;21.20;55.50
79571;DHT22;69034;49.444;7.758;2023-05-10T07:49:13;21.40;55.20
79571;DHT22;69034;49.444;7.758;2023-05-10T07:53:14;21.70;54.80
79571;DHT22;69034;49.444;7.758;2023-05-10T07:57:15;22.00;54.30
79571;DHT22;69034;49.444;7.758;2023-05-10T08:01:18;22.40;53.60
79571;DHT22;69034;49.444;7.758;2023-05-10T08:05:18;22.70;52.90
79571;DHT22;69034;49.444;7.758;2023-05-10T08:09:19;22.70;52.70
79571;DHT22;69034;49.444;7.758;2023-05-10T08:13:23;22.60;52.50
79571;DHT22;69034;49.444;7.758;2023-05-10T08:17:24;22.80;52.10
79571;DHT22;69034;49.444;7.758;2023-05-10T08:21:25;23.20;51.40
79571;DHT22;69034;49.444;7.758;2023-05-10T08:25:26;23.60;50.70
79571;DHT22;69034;49.444;7.758;2023-05-10T08:29:27;23.90;50.00
79571;DHT22;69034;49.444;7.758;2023-05-10T08:33:27;24.00;49.50
79571;DHT22;69034;49.444;7.758;2023-05-10T08:37:30;24.80;48.40
79571;DHT22;69034;49.444;7.758;2023-05-10T08:41:33;25.80;47.00
79571;DHT22;69034;49.444;7.758;2023-05-10T08:45:44;26.20;46.30
79571;DHT22;69034;49.444;7.758;2023-05-10T08:49:48;26.10;46.50
79571;DHT22;69034;49.444;7.758;2023-05-10T08:53:51;25.80;46.70
79571;DHT22;69034;49.444;7.758;2023-05-10T08:57:53;25.80;46.20
79571;DHT22;69034;49.444;7.758;2023-05-10T09:01:55;25.80;45.90
79571;DHT22;69034;49.444;7.758;2023-05-10T09:05:56;25.90;45.30
79571;DHT22;69034;49.444;7.758;2023-05-10T09:09:57;25.70;45.10
79571;DHT22;69034;49.444;7.758;2023-05-10T09:13:58;25.60;44.90
79571;DHT22;69034;49.444;7.758;2023-05-10T09:17:58;25.60;45.00
79571;DHT22;69034;49.444;7.758;2023-05-10T09:22:02;25.90;44.40
79571;DHT22;69034;49.444;7.758;2023-05-10T09:26:04;26.40;43.40
79571;DHT22;69034;49.444;7.758;2023-05-10T09:30:08;26.80;42.80
79571;DHT22;69034;49.444;7.758;2023-05-10T09:34:09;27.60;41.80
79571;DHT22;69034;49.444;7.758;2023-05-10T09:38:09;28.30;40.90
79571;DHT22;69034;49.444;7.758;2023-05-10T09:42:10;28.10;41.40
79571;DHT22;69034;49.444;7.758;2023-05-10T09:46:11;27.90;41.30
79571;DHT22;69034;49.444;7.758;2023-05-10T09:50:12;27.60;41.40
79571;DHT22;69034;49.444;7.758;2023-05-10T09:54:14;27.30;41.30
79571;DHT22;69034;49.444;7.758;2023-05-10T09:58:15;27.30;41.00
79571;DHT22;69034;49.444;7.758;2023-05-10T10:02:16;27.50;40.80
79571;DHT22;69034;49.444;7.758;2023-05-10T10:06:19;27.90;40.40
79571;DHT22;69034;49.444;7.758;2023-05-10T10:10:19;28.30;39.90
79571;DHT22;69034;49.444;7.758;2023-05-10T10:14:22;29.60;38.90
79571;DHT22;69034;49.444;7.758;2023-05-10T10:18:23;31.60;36.10
79571;DHT22;69034;49.444;7.758;2023-05-10T10:22:27;32.00;36.70
79571;DHT22;69034;49.444;7.758;2023-05-10T10:26:28;31.20;38.10
79571;DHT22;69034;49.444;7.758;2023-05-10T10:34:30;33.40;35.90
79571;DHT22;69034;49.444;7.758;2023-05-10T10:38:55;34.20;34.70
79571;DHT22;69034;49.444;7.758;2023-05-10T10:43:26;34.80;33.50
79571;DHT22;69034;49.444;7.758;2023-05-10T10:47:28;35.10;31.40
79571;DHT22;69034;49.444;7.758;2023-05-10T10:51:36;33.60;32.80
79571;DHT22;69034;49.444;7.758;2023-05-10T10:55:46;31.90;34.40
79571;DHT22;69034;49.444;7.758;2023-05-10T10:59:48;30.60;35.10
79571;DHT22;69034;49.444;7.758;2023-05-10T11:08:11;28.80;36.30
79571;DHT22;69034;49.444;7.758;2023-05-10T11:12:12;28.30;36.60
79571;DHT22;69034;49.444;7.758;2023-05-10T11:20:14;28.30;36.70
79571;DHT22;69034;49.444;7.758;2023-05-10T11:24:17;28.50;36.60
79571;DHT22;69034;49.444;7.758;2023-05-10T11:28:18;28.30;36.60
79571;DHT22;69034;49.444;7.758;2023-05-10T11:32:20;28.60;36.60
79571;DHT22;69034;49.444;7.758;2023-05-10T11:36:27;30.90;34.90
79571;DHT22;69034;49.444;7.758;2023-05-10T11:40:28;33.10;32.80
79571;DHT22;69034;49.444;7.758;2023-05-10T11:44:30;34.40;31.60
79571;DHT22;69034;49.444;7.758;2023-05-10T11:48:31;35.70;30.40
79571;DHT22;69034;49.444;7.758;2023-05-10T11:52:36;36.80;29.60
79571;DHT22;69034;49.444;7.758;2023-05-10T11:56:39;38.40;27.80
79571;DHT22;69034;49.444;7.758;2023-05-10T12:00:39;39.70;26.90
79571;DHT22;69034;49.444;7.758;2023-05-10T12:04:41;41.80;25.40
79571;DHT22;69034;49.444;7.758;2023-05-10T12:08:45;43.80;19.90
79571;DHT22;69034;49.444;7.758;2023-05-10T12:12:47;44.20;19.00
79571;DHT22;69034;49.444;7.758;2023-05-10T12:16:50;44.70;18.60
79571;DHT22;69034;49.444;7.758;2023-05-10T12:20:54;46.00;17.60
79571;DHT22;69034;49.444;7.758;2023-05-10T12:24:55;44.30;18.50
79571;DHT22;69034;49.444;7.758;2023-05-10T12:29:14;42.70;18.90
79571;DHT22;69034;49.444;7.758;2023-05-10T12:33:17;42.40;18.50
79571;DHT22;69034;49.444;7.758;2023-05-10T12:37:24;43.30;17.40
79571;DHT22;69034;49.444;7.758;2023-05-10T12:41:24;44.50;16.10
79571;DHT22;69034;49.444;7.758;2023-05-10T12:45:25;42.00;16.50
79571;DHT22;69034;49.444;7.758;2023-05-10T12:49:26;39.40;17.50
79571;DHT22;69034;49.444;7.758;2023-05-10T12:53:27;40.00;16.80
79571;DHT22;69034;49.444;7.758;2023-05-10T12:57:27;38.10;18.50
79571;DHT22;69034;49.444;7.758;2023-05-10T13:01:28;38.50;18.10
79571;DHT22;69034;49.444;7.758;2023-05-10T13:05:29;37.20;19.00
79571;DHT22;69034;49.444;7.758;2023-05-10T13:09:30;36.80;19.40
79571;DHT22;69034;49.444;7.758;2023-05-10T13:13:30;40.00;18.40
79571;DHT22;69034;49.444;7.758;2023-05-10T13:17:31;44.10;16.20
79571;DHT22;69034;49.444;7.758;2023-05-10T13:21:32;45.30;16.00
79571;DHT22;69034;49.444;7.758;2023-05-10T13:25:32;43.40;16.40
79571;DHT22;69034;49.444;7.758;2023-05-10T13:29:34;44.20;16.60
79571;DHT22;69034;49.444;7.758;2023-05-10T13:33:35;46.50;15.40
79571;DHT22;69034;49.444;7.758;2023-05-10T13:37:35;48.20;14.50
79571;DHT22;69034;49.444;7.758;2023-05-10T13:41:37;44.50;15.10
79571;DHT22;69034;49.444;7.758;2023-05-10T13:45:38;41.50;16.50
79571;DHT22;69034;49.444;7.758;2023-05-10T13:49:39;39.30;17.60
79571;DHT22;69034;49.444;7.758;2023-05-10T13:53:40;37.70;18.40
79571;DHT22;69034;49.444;7.758;2023-05-10T13:57:40;36.50;19.10
79571;DHT22;69034;49.444;7.758;2023-05-10T14:01:41;35.70;19.30
79571;DHT22;69034;49.444;7.758;2023-05-10T14:05:43;36.50;18.80
79571;DHT22;69034;49.444;7.758;2023-05-10T14:09:45;37.70;19.50
79571;DHT22;69034;49.444;7.758;2023-05-10T14:13:45;37.60;19.70
79571;DHT22;69034;49.444;7.758;2023-05-10T14:17:46;37.30;18.40
79571;DHT22;69034;49.444;7.758;2023-05-10T14:21:47;38.70;17.90
79571;DHT22;69034;49.444;7.758;2023-05-10T14:25:47;40.60;16.00
79571;DHT22;69034;49.444;7.758;2023-05-10T14:29:48;38.90;16.60
79571;DHT22;69034;49.444;7.758;2023-05-10T14:33:48;39.30;15.70
79571;DHT22;69034;49.444;7.758;2023-05-10T14:37:49;38.50;16.60
79571;DHT22;69034;49.444;7.758;2023-05-10T14:41:50;39.90;15.50
79571;DHT22;69034;49.444;7.758;2023-05-10T14:45:52;39.30;15.50
79571;DHT22;69034;49.444;7.758;2023-05-10T14:49:52;37.30;16.70
79571;DHT22;69034;49.444;7.758;2023-05-10T14:53:53;36.30;17.30
79571;DHT22;69034;49.444;7.758;2023-05-10T14:57:54;35.50;17.80
79571;DHT22;69034;49.444;7.758;2023-05-10T15:01:54;35.90;17.90
79571;DHT22;69034;49.444;7.758;2023-05-10T15:05:55;36.60;17.90
79571;DHT22;69034;49.444;7.758;2023-05-10T15:09:57;37.30;15.90
79571;DHT22;69034;49.444;7.758;2023-05-10T15:13:58;35.70;16.60
79571;DHT22;69034;49.444;7.758;2023-05-10T15:17:59;36.60;16.00
79571;DHT22;69034;49.444;7.758;2023-05-10T15:21:59;39.10;14.90
79571;DHT22;69034;49.444;7.758;2023-05-10T15:26:01;39.90;14.40
79571;DHT22;69034;49.444;7.758;2023-05-10T15:30:01;37.10;15.50
79571;DHT22;69034;49.444;7.758;2023-05-10T15:34:03;36.70;15.60
79571;DHT22;69034;49.444;7.758;2023-05-10T15:38:04;34.80;16.50
79571;DHT22;69034;49.444;7.758;2023-05-10T15:42:04;33.80;17.00
79571;DHT22;69034;49.444;7.758;2023-05-10T15:46:05;34.00;17.10
79571;DHT22;69034;49.444;7.758;2023-05-10T15:50:08;32.80;17.90
79571;DHT22;69034;49.444;7.758;2023-05-10T15:54:09;32.00;18.50
79571;DHT22;69034;49.444;7.758;2023-05-10T15:58:09;31.30;19.10
79571;DHT22;69034;49.444;7.758;2023-05-10T16:02:10;32.10;18.80
79571;DHT22;69034;49.444;7.758;2023-05-10T16:06:11;34.20;17.70
79571;DHT22;69034;49.444;7.758;2023-05-10T16:10:12;35.20;17.20
79571;DHT22;69034;49.444;7.758;2023-05-10T16:14:13;36.60;16.70
79571;DHT22;69034;49.444;7.758;2023-05-10T16:18:13;37.80;16.00
79571;DHT22;69034;49.444;7.758;2023-05-10T16:22:14;38.80;15.60
79571;DHT22;69034;49.444;7.758;2023-05-10T16:26:15;38.60;15.20
79571;DHT22;69034;49.444;7.758;2023-05-10T16:30:16;38.20;15.10
79571;DHT22;69034;49.444;7.758;2023-05-10T16:34:16;37.90;15.00
79571;DHT22;69034;49.444;7.758;2023-05-10T16:38:17;36.60;15.60
79571;DHT22;69034;49.444;7.758;2023-05-10T16:42:18;35.80;16.10
79571;DHT22;69034;49.444;7.758;2023-05-10T16:46:18;35.20;16.40
79571;DHT22;69034;49.444;7.758;2023-05-10T16:50:19;33.50;17.40
79571;DHT22;69034;49.444;7.758;2023-05-10T16:54:20;32.10;18.30
79571;DHT22;69034;49.444;7.758;2023-05-10T16:58:21;31.20;19.10
79571;DHT22;69034;49.444;7.758;2023-05-10T17:02:22;30.50;19.80
79571;DHT22;69034;49.444;7.758;2023-05-10T17:06:23;29.60;24.90
79571;DHT22;69034;49.444;7.758;2023-05-10T17:10:23;28.90;26.00
79571;DHT22;69034;49.444;7.758;2023-05-10T17:14:24;28.20;26.70
79571;DHT22;69034;49.444;7.758;2023-05-10T17:18:25;27.70;27.30
79571;DHT22;69034;49.444;7.758;2023-05-10T17:22:26;27.30;27.90
79571;DHT22;69034;49.444;7.758;2023-05-10T17:26:26;27.20;28.10
79571;DHT22;69034;49.444;7.758;2023-05-10T17:30:27;27.60;27.90
79571;DHT22;69034;49.444;7.758;2023-05-10T17:34:31;27.60;28.00
79571;DHT22;69034;49.444;7.758;2023-05-10T17:38:32;27.30;28.40
79571;DHT22;69034;49.444;7.758;2023-05-10T17:42:33;27.10;28.60
79571;DHT22;69034;49.444;7.758;2023-05-10T17:46:34;27.00;28.70
79571;DHT22;69034;49.444;7.758;2023-05-10T17:50:34;26.80;28.90
79571;DHT22;69034;49.444;7.758;2023-05-10T17:54:35;26.60;29.40
79571;DHT22;69034;49.444;7.758;2023-05-10T17:58:36;26.50;29.60
79571;DHT22;69034;49.444;7.758;2023-05-10T18:02:39;26.30;29.80
79571;DHT22;69034;49.444;7.758;2023-05-10T18:06:40;26.10;30.10
79571;DHT22;69034;49.444;7.758;2023-05-10T18:10:41;25.90;30.30
79571;DHT22;69034;49.444;7.758;2023-05-10T18:14:41;25.60;30.60
79571;DHT22;69034;49.444;7.758;2023-05-10T18:18:42;25.40;30.80
79571;DHT22;69034;49.444;7.758;2023-05-10T18:22:42;25.20;31.00
79571;DHT22;69034;49.444;7.758;2023-05-10T18:26:44;24.90;31.30
79571;DHT22;69034;49.444;7.758;2023-05-10T18:30:45;24.60;31.50
79571;DHT22;69034;49.444;7.758;2023-05-10T18:34:45;24.40;31.90
79571;DHT22;69034;49.444;7.758;2023-05-10T18:38:46;24.10;32.10
79571;DHT22;69034;49.444;7.758;2023-05-10T18:42:46;23.80;32.60
79571;DHT22;69034;49.444;7.758;2023-05-10T18:46:49;23.50;32.90
79571;DHT22;69034;49.444;7.758;2023-05-10T18:50:53;23.20;33.30
79571;DHT22;69034;49.444;7.758;2023-05-10T18:54:53;23.00;33.60
79571;DHT22;69034;49.444;7.758;2023-05-10T18:58:54;22.70;33.90
79571;DHT22;69034;49.444;7.758;2023-05-10T19:02:55;22.40;34.30
79571;DHT22;69034;49.444;7.758;2023-05-10T19:06:55;22.10;34.70
79571;DHT22;69034;49.444;7.758;2023-05-10T19:10:56;21.90;35.00
79571;DHT22;69034;49.444;7.758;2023-05-10T19:14:57;21.60;35.30
79571;DHT22;69034;49.444;7.758;2023-05-10T19:18:58;21.40;35.60
79571;DHT22;69034;49.444;7.758;2023-05-10T19:22:58;21.20;35.90
79571;DHT22;69034;49.444;7.758;2023-05-10T19:27:00;21.00;36.20
79571;DHT22;69034;49.444;7.758;2023-05-10T19:31:00;20.80;36.50
79571;DHT22;69034;49.444;7.758;2023-05-10T19:35:01;20.70;36.70
79571;DHT22;69034;49.444;7.758;2023-05-10T19:39:02;20.70;36.80
79571;DHT22;69034;49.444;7.758;2023-05-10T19:43:03;20.60;37.10
79571;DHT22;69034;49.444;7.758;2023-05-10T19:47:03;20.60;37.20
79571;DHT22;69034;49.444;7.758;2023-05-10T19:51:04;20.50;37.40
79571;DHT22;69034;49.444;7.758;2023-05-10T19:55:05;20.50;37.50
79571;DHT22;69034;49.444;7.758;2023-05-10T19:59:06;20.40;37.70
79571;DHT22;69034;49.444;7.758;2023-05-10T20:03:07;20.30;37.90
79571;DHT22;69034;49.444;7.758;2023-05-10T20:07:08;20.20;38.00
79571;DHT22;69034;49.444;7.758;2023-05-10T20:11:09;20.20;38.20
79571;DHT22;69034;49.444;7.758;2023-05-10T20:15:10;20.10;38.40
79571;DHT22;69034;49.444;7.758;2023-05-10T20:19:10;20.00;38.60
79571;DHT22;69034;49.444;7.758;2023-05-10T20:23:11;19.90;38.70
79571;DHT22;69034;49.444;7.758;2023-05-10T20:27:12;19.70;39.00
79571;DHT22;69034;49.444;7.758;2023-05-10T20:31:13;19.50;39.10
79571;DHT22;69034;49.444;7.758;2023-05-10T20:35:13;19.40;39.30
79571;DHT22;69034;49.444;7.758;2023-05-10T20:39:14;19.40;40.00
79571;DHT22;69034;49.444;7.758;2023-05-10T20:43:14;19.20;40.10
79571;DHT22;69034;49.444;7.758;2023-05-10T20:47:15;19.10;40.40
79571;DHT22;69034;49.444;7.758;2023-05-10T20:51:16;18.90;40.60
79571;DHT22;69034;49.444;7.758;2023-05-10T20:55:18;18.80;40.70
79571;DHT22;69034;49.444;7.758;2023-05-10T20:59:19;18.70;40.80
79571;DHT22;69034;49.444;7.758;2023-05-10T21:03:23;18.50;41.00
79571;DHT22;69034;49.444;7.758;2023-05-10T21:07:24;18.40;41.30
79571;DHT22;69034;49.444;7.758;2023-05-10T21:11:25;18.30;41.60
79571;DHT22;69034;49.444;7.758;2023-05-10T21:15:25;18.20;43.20
79571;DHT22;69034;49.444;7.758;2023-05-10T21:19:27;18.40;42.60
79571;DHT22;69034;49.444;7.758;2023-05-10T21:23:27;18.30;42.70
79571;DHT22;69034;49.444;7.758;2023-05-10T21:27:28;18.10;42.90
79571;DHT22;69034;49.444;7.758;2023-05-10T21:31:29;17.90;43.10
79571;DHT22;69034;49.444;7.758;2023-05-10T21:35:31;17.80;43.20
79571;DHT22;69034;49.444;7.758;2023-05-10T21:39:31;17.70;43.20
79571;DHT22;69034;49.444;7.758;2023-05-10T21:43:32;17.60;43.40
79571;DHT22;69034;49.444;7.758;2023-05-10T21:47:33;17.60;43.70
79571;DHT22;69034;49.444;7.758;2023-05-10T21:51:34;17.60;43.60
79571;DHT22;69034;49.444;7.758;2023-05-10T21:55:35;17.70;43.60
79571;DHT22;69034;49.444;7.758;2023-05-10T21:59:35;17.70;43.70
79571;DHT22;69034;49.444;7.758;2023-05-10T22:03:36;17.70;43.90
79571;DHT22;69034;49.444;7.758;2023-05-10T22:07:37;17.70;43.80
79571;DHT22;69034;49.444;7.758;2023-05-10T22:11:39;17.70;43.90
79571;DHT22;69034;49.444;7.758;2023-05-10T22:15:39;17.60;43.90
79571;DHT22;69034;49.444;7.758;2023-05-10T22:19:40;17.60;44.00
79571;DHT22;69034;49.444;7.758;2023-05-10T22:23:41;17.60;44.00
79571;DHT22;69034;49.444;7.758;2023-05-10T22:27:41;17.50;44.00
79571;DHT22;69034;49.444;7.758;2023-05-10T22:31:42;17.40;44.10
79571;DHT22;69034;49.444;7.758;2023-05-10T22:35:43;17.20;44.10
79571;DHT22;69034;49.444;7.758;2023-05-10T22:39:47;17.10;44.30
79571;DHT22;69034;49.444;7.758;2023-05-10T22:43:48;16.90;44.40
79571;DHT22;69034;49.444;7.758;2023-05-10T22:47:49;16.80;44.50
79571;DHT22;69034;49.444;7.758;2023-05-10T22:51:49;16.70;44.60
79571;DHT22;69034;49.444;7.758;2023-05-10T22:55:50;16.60;44.60
79571;DHT22;69034;49.444;7.758;2023-05-10T22:59:52;16.50;44.70
79571;DHT22;69034;49.444;7.758;2023-05-10T23:03:52;16.40;44.90
79571;DHT22;69034;49.444;7.758;2023-05-10T23:07:53;16.30;45.00
79571;DHT22;69034;49.444;7.758;2023-05-10T23:11:53;16.20;45.20
79571;DHT22;69034;49.444;7.758;2023-05-10T23:15:54;16.10;45.30
79571;DHT22;69034;49.444;7.758;2023-05-10T23:19:55;16.10;45.40
79571;DHT22;69034;49.444;7.758;2023-05-10T23:23:55;16.00;45.50
79571;DHT22;69034;49.444;7.758;2023-05-10T23:27:56;15.90;45.60
79571;DHT22;69034;49.444;7.758;2023-05-10T23:31:57;15.90;45.80
79571;DHT22;69034;49.444;7.758;2023-05-10T23:35:57;15.80;45.70
79571;DHT22;69034;49.444;7.758;2023-05-10T23:39:58;15.80;45.80
79571;DHT22;69034;49.444;7.758;2023-05-10T23:43:59;15.70;45.90
79571;DHT22;69034;49.444;7.758;2023-05-10T23:48:01;15.60;46.20
79571;DHT22;69034;49.444;7.758;2023-05-10T23:52:02;15.60;46.30
79571;DHT22;69034;49.444;7.758;2023-05-10T23:56:03;15.50;46.70
